Hovedside
METAR-TAF:

METAR-TAF

Lufthavner :

Kairo, Egypt

breddegrad: 30-08N, lengdegrad: 031-24E, høyde over havet: 64 m

Gjeldene værobservasjon

Denne rapporten ble laget for 13 minutter siden, klokken 10:30 UTC
Vind 8 kt fra Nord-nordøst
Temperatur 31°C
Luftfuktighet 27%
Trykk 1015 hPa
Sikt 10 km eller mer
ingen skyer under 1500 m og ingen bygeskyer

METAR: HECA 251030Z 02008KT CAVOK 31/10 Q1015 NOSIG

Tid: 12:43 (10:43 UTC)

Varsel

Denne rapporten ble laget for 5 timer og 43 minutter siden, klokken 05:00 UTC
Varsel gyldig fra 25. klokken 06 UTC til 26. klokken 12 UTC
Vind 8 kt fra Nord-nordøst
Sikt 10 km eller mer
ingen skyer under 1500 m og ingen bygeskyer
Sannsynlighet 40%
fra 25. klokken 06 UTC til 25. klokken 08 UTC
Sikt: 4000 m
dis

TAF: HECA 250500Z 2506/2612 03008KT CAVOK PROB40 2506/2508 4000 HZ NSC

Værobservasjoner og værvarsel for over 4000 flyplasser (METAR- og TAF-rapporter).

Tilgjengelige stasjoner er representert av de røde og gule prikkene på kartet.

Hold musepekeren over prikken for å se navnet på stasjonen.

Klikk så for å se værobservasjoner og -varsler.

For å forandre kartet kan du klikke på den grønne knappen med svart kryss for å zoome inn, på den grønne knappen med strek for å zoome ut, eller på de grønne pilene for å se tilstøtende kart.


METAR-TAF: